Thunder radar more information blitzortung!


Radar de pluja more information rain snow radar


Visita la nostra xarxa de llocs de meteo:

Template documentation
and downloads

And another site



No particular awareness of the weather is required.    There are no Weather-warnings

Pagina Historial Weather Underground text

Diari Resum Juny 13, 2017 Unitats:  Mètric    Imperial   Tant
« Previous Dia
SegĂźent Dia »
Diari Setmana Mensual Anual Personalitzada
  Maxima: Minima: Media:
Temperatura: -17.8 °C -7.1 °C -1.3 °C
Punt de rosada: -17.8 °C -15.6 °C -11.9 °C
Humitat: Humidity % 17 % 32 %
Wind Speed: 0 km/h 0 km/h 11.7 km/h
RĂ fegues de vent: 0 km/h - -
Vent:- - SSW
Pression baro: 0 hPa 34164.7 hPa -
Precipitacions: 0 mm    
Historical Graphs
 
 
Dades de taula per Juny 13, 2017
Temps Temperatura Punt de rosada Pression baro Vent Wind Speed RĂ fegues de vent Humitat Rainfall Rate (Hourly)
-17.8 °C -17.8 °C 0 hPa Calm     Humidity % 0 mm
00:00 -6.7 °C -12.4 °C 34293.4 hPa Calm   5.1 km/h 51 % 0 mm
00:04 -4.3 °C -12.3 °C 34293.4 hPa SW 6.8 km/h 6.8 km/h 40 % 0 mm
00:10 -6.8 °C -12.6 °C 34293.4 hPa SW 2.6 km/h 2.6 km/h 51 % 0 mm
00:20 -6.9 °C -12.6 °C 34293.4 hPa SW 2.6 km/h 2.6 km/h 52 % 0 mm
00:30 -6.9 °C -12.6 °C 34293.4 hPa SW 2.6 km/h 5.1 km/h 52 % 0 mm
00:40 -7 °C -12.6 °C 34293.4 hPa Calm   2.6 km/h 52 % 0 mm
00:50 -7 °C -12.4 °C 34293.4 hPa Calm     53 % 0 mm
01:00 -7 °C -12.4 °C 34293.4 hPa Calm     53 % 0 mm
01:10 -6.9 °C -12.3 °C 34293.4 hPa Calm     54 % 0 mm
01:20 -7 °C -12.3 °C 34293.4 hPa Calm     54 % 0 mm
01:30 -7.1 °C -12.3 °C 34293.4 hPa Calm   2.6 km/h 54 % 0 mm
01:40 -7.1 °C -12.3 °C 34293.4 hPa Calm   2.6 km/h 54 % 0 mm
01:50 -6.9 °C -12.2 °C 34327.3 hPa Calm   5.1 km/h 54 % 0 mm
02:00 -6.8 °C -12.1 °C 34327.3 hPa SW 2.6 km/h 5.1 km/h 54 % 0 mm
02:10 -6.7 °C -12.2 °C 34327.3 hPa Calm   2.6 km/h 53 % 0 mm
02:20 -6.5 °C -12.2 °C 34327.3 hPa SW 2.6 km/h 5.1 km/h 52 % 0 mm
02:30 -6.3 °C -12 °C 34327.3 hPa SW 2.6 km/h 5.1 km/h 52 % 0 mm
02:40 -5.8 °C -11.7 °C 34327.3 hPa Calm   2.6 km/h 51 % 0 mm
02:50 -5.5 °C -11.4 °C 34327.3 hPa Calm   2.6 km/h 51 % 0 mm
03:00 -5.2 °C -11.3 °C 34327.3 hPa Calm     50 % 0 mm
03:10 -4.8 °C -11.1 °C 34327.3 hPa SSE 2.6 km/h 2.6 km/h 49 % 0 mm
03:20 -4.4 °C -10.8 °C 34327.3 hPa Calm   2.6 km/h 49 % 0 mm
03:30 -4.3 °C -10.8 °C 34327.3 hPa East 2.6 km/h 5.1 km/h 48 % 0 mm
03:40 -4.3 °C -10.8 °C 34327.3 hPa ESE 2.6 km/h 5.1 km/h 48 % 0 mm
03:50 -4 °C -10.7 °C 34327.3 hPa SW 2.6 km/h 5.1 km/h 47 % 0 mm
03:55 -3.9 °C -10.8 °C 34327.3 hPa Calm     46 % 0 mm
04:05 -3.6 °C -10.5 °C 34327.3 hPa Calm   7.7 km/h 46 % 0 mm
04:15 -3.3 °C -10.4 °C 34327.3 hPa Calm   5.1 km/h 45 % 0 mm
04:25 -3.1 °C -10.4 °C 34327.3 hPa ENE 2.6 km/h 7.7 km/h 44 % 0 mm
04:35 -2.9 °C -10.3 °C 34327.3 hPa ESE 5.1 km/h 5.1 km/h 44 % 0 mm
04:45 -2.7 °C -10.2 °C 34293.4 hPa SSE 2.6 km/h 2.6 km/h 43 % 0 mm
04:55 -2.4 °C -10.1 °C 34327.3 hPa SSE 5.1 km/h 5.1 km/h 43 % 0 mm
05:05 -2 °C -9.9 °C 34327.3 hPa SSW 2.6 km/h 10.3 km/h 42 % 0 mm
05:15 -1.8 °C -9.9 °C 34327.3 hPa SW 7.7 km/h 7.7 km/h 41 % 0 mm
05:25 -1.4 °C -9.8 °C 34327.3 hPa SW 2.6 km/h 7.7 km/h 40 % 0 mm
05:35 -1.1 °C -9.5 °C 34327.3 hPa SW 2.6 km/h 7.7 km/h 40 % 0 mm
10:38 -0.8 °C -9.4 °C 34327.3 hPa SW 3.1 km/h 4.2 km/h 39 % 0 mm
10:43 -0.9 °C -9.6 °C 34327.3 hPa SW 17.9 km/h 17.9 km/h 39 % 0 mm
10:48 -0.9 °C -9.7 °C 34327.3 hPa SSE 11.9 km/h 11.9 km/h 38 % 0 mm
10:53 -0.7 °C -9.6 °C 34327.3 hPa South 12.7 km/h 12.7 km/h 38 % 0 mm
10:58 -0.8 °C -9.9 °C 34327.3 hPa WSW 9.8 km/h 9.8 km/h 37 % 0 mm
11:03 -0.4 °C -9.8 °C 34327.3 hPa SSE 11.9 km/h 11.9 km/h 36 % 0 mm
11:08 -0.2 °C -9.6 °C 34327.3 hPa SSW 6 km/h 6 km/h 36 % 0 mm
11:13 -0.1 °C -9.5 °C 34327.3 hPa West 9.3 km/h 9.3 km/h 36 % 0 mm
11:18 -0.3 °C -9.9 °C 34327.3 hPa South 11.9 km/h 11.9 km/h 35 % 0 mm
11:23 -0.4 °C -10.1 °C 34327.3 hPa SSE 17.9 km/h 17.9 km/h 35 % 0 mm
11:28 -0.2 °C -9.8 °C 34327.3 hPa SSW 9 km/h 9 km/h 35 % 0 mm
11:38 0 °C -10.2 °C 34327.3 hPa WSW 17.9 km/h 17.9 km/h 33 % 0 mm
11:43 0 °C -10.2 °C 34327.3 hPa ENE 9 km/h 9 km/h 33 % 0 mm
11:48 -0.2 °C -10.3 °C 34327.3 hPa ESE 6 km/h 8 km/h 33 % 0 mm
11:53 0.2 °C -9.9 °C 34327.3 hPa South 3.1 km/h 3.7 km/h 33 % 0 mm
11:54 0.2 °C -9.9 °C 34327.3 hPa South 3.1 km/h 3.7 km/h 33 % 0 mm
11:59 0.2 °C -10 °C 34327.3 hPa South 3.1 km/h 3.7 km/h 33 % 0 mm
12:04 -0.1 °C -10.2 °C 34293.4 hPa ESE 15.6 km/h 15.6 km/h 33 % 0 mm
12:09 0.4 °C -10.1 °C 34293.4 hPa SSE 9 km/h 9 km/h 32 % 0 mm
12:14 0.6 °C -9.9 °C 34293.4 hPa SW 15 km/h 15 km/h 32 % 0 mm
12:19 0.5 °C -10.2 °C 34293.4 hPa SE 12.7 km/h 12.7 km/h 31 % 0 mm
12:24 0.3 °C -10.4 °C 34293.4 hPa ESE 4.2 km/h 10.3 km/h 31 % 0 mm
12:29 0.1 °C -10.6 °C 34293.4 hPa SW 15 km/h 15 km/h 31 % 0 mm
12:34 0.5 °C -10.2 °C 34293.4 hPa WSW 15.6 km/h 15.6 km/h 31 % 0 mm
12:39 0.7 °C -10.4 °C 34293.4 hPa SE 6.8 km/h 6.8 km/h 30 % 0 mm
12:44 0.7 °C -10.3 °C 34293.4 hPa South 6.3 km/h 8.5 km/h 30 % 0 mm
12:49 1.1 °C -10 °C 34293.4 hPa SW 17.9 km/h 17.9 km/h 30 % 0 mm
12:54 1.1 °C -10.3 °C 34293.4 hPa SE 9 km/h 9 km/h 29 % 0 mm
12:59 1 °C -10.1 °C 34293.4 hPa ENE 9.8 km/h 9.8 km/h 30 % 0 mm
13:04 0.4 °C -10.6 °C 34256.2 hPa ESE 17.9 km/h 17.9 km/h 30 % 0 mm
13:09 0.4 °C -10.6 °C 34256.2 hPa NE 15 km/h 15 km/h 30 % 0 mm
13:14 0.2 °C -10.8 °C 34256.2 hPa East 20.9 km/h 20.9 km/h 30 % 0 mm
13:19 0.3 °C -10.7 °C 34256.2 hPa ESE 23.8 km/h 23.8 km/h 30 % 0 mm
13:24 0.3 °C -10.7 °C 34256.2 hPa East 23.8 km/h 23.8 km/h 30 % 0 mm
13:29 0.4 °C -10.7 °C 34256.2 hPa ESE 16.1 km/h 16.1 km/h 30 % 0 mm
13:34 0.4 °C -10.7 °C 34256.2 hPa ENE 23.8 km/h 23.8 km/h 30 % 0 mm
13:39 0.4 °C -10.7 °C 34256.2 hPa ESE 15 km/h 15 km/h 30 % 0 mm
13:44 0.4 °C -10.7 °C 34256.2 hPa SW 15 km/h 15 km/h 30 % 0 mm
13:49 1.1 °C -10.3 °C 34256.2 hPa ESE 15.6 km/h 15.6 km/h 29 % 0 mm
13:54 0.9 °C -10.5 °C 34256.2 hPa NE 17.9 km/h 17.9 km/h 29 % 0 mm
13:59 0.7 °C -10.9 °C 34256.2 hPa East 11.9 km/h 11.9 km/h 28 % 0 mm
14:04 0.9 °C -10.4 °C 34256.2 hPa SSW 10.3 km/h 10.3 km/h 29 % 0 mm
14:09 1.1 °C -10.7 °C 34256.2 hPa WSW 20.9 km/h 20.9 km/h 28 % 0 mm
14:14 1.4 °C -10.4 °C 34256.2 hPa ESE 15.3 km/h 15.3 km/h 28 % 0 mm
14:19 1.4 °C -10.3 °C 34222.3 hPa ESE 6 km/h 6 km/h 28 % 0 mm
14:24 1.4 °C -10.7 °C 34222.3 hPa WSW 9.8 km/h 9.8 km/h 27 % 0 mm
14:29 1.7 °C -10.8 °C 34222.3 hPa SW 15 km/h 15 km/h 26 % 0 mm
14:34 1.8 °C -10.7 °C 34222.3 hPa SW 17.9 km/h 17.9 km/h 26 % 0 mm
14:39 1.6 °C -10.5 °C 34222.3 hPa SSW 11.9 km/h 11.9 km/h 27 % 0 mm
14:44 1.6 °C -10.5 °C 34222.3 hPa SW 27.2 km/h 27.2 km/h 27 % 0 mm
14:49 1.3 °C -11.1 °C 34256.2 hPa SW 23.8 km/h 23.8 km/h 26 % 0 mm
14:54 1.5 °C -10.6 °C 34256.2 hPa SW 20.9 km/h 20.9 km/h 27 % 0 mm
14:59 1.3 °C -11.1 °C 34256.2 hPa WSW 23.8 km/h 23.8 km/h 26 % 0 mm
15:04 1.4 °C -10.9 °C 34256.2 hPa WSW 19.2 km/h 19.2 km/h 26 % 0 mm
15:09 1.3 °C -11.1 °C 34256.2 hPa SSW 17.9 km/h 17.9 km/h 26 % 0 mm
15:14 1.5 °C -10.9 °C 34256.2 hPa West 17.9 km/h 17.9 km/h 26 % 0 mm
15:19 1.6 °C -10.9 °C 34256.2 hPa SSW 17.9 km/h 17.9 km/h 26 % 0 mm
15:24 1.5 °C -10.9 °C 34256.2 hPa SSW 15 km/h 15 km/h 26 % 0 mm
15:29 1.6 °C -10.8 °C 34256.2 hPa WSW 11.1 km/h 11.1 km/h 26 % 0 mm
15:34 1.4 °C -11 °C 34256.2 hPa WSW 17.9 km/h 17.9 km/h 26 % 0 mm
15:39 1.6 °C -10.8 °C 34256.2 hPa SW 20.9 km/h 20.9 km/h 26 % 0 mm
15:44 1.9 °C -10.9 °C 34256.2 hPa ESE 6.3 km/h 6.3 km/h 25 % 0 mm
15:49 2.1 °C -11.1 °C 34256.2 hPa South 20.9 km/h 20.9 km/h 24 % 0 mm
15:54 2.1 °C -10.8 °C 34256.2 hPa WSW 15 km/h 15 km/h 25 % 0 mm
15:59 2.2 °C -10.9 °C 34256.2 hPa SW 14 km/h 14 km/h 24 % 0 mm
16:04 2.2 °C -10.9 °C 34256.2 hPa West 19.2 km/h 19.2 km/h 24 % 0 mm
16:09 2.2 °C -10.9 °C 34256.2 hPa South 17.9 km/h 17.9 km/h 24 % 0 mm
16:14 2.2 °C -10.9 °C 34256.2 hPa SW 9 km/h 9 km/h 24 % 0 mm
16:19 2.1 °C -11.1 °C 34256.2 hPa ESE 15 km/h 15 km/h 24 % 0 mm
16:24 1.6 °C -11.2 °C 34256.2 hPa SW 15 km/h 15 km/h 25 % 0 mm
16:29 1.3 °C -11.4 °C 34256.2 hPa East 10.3 km/h 10.3 km/h 25 % 0 mm
16:34 1.5 °C -11.2 °C 34256.2 hPa WNW 11.9 km/h 11.9 km/h 25 % 0 mm
16:39 1.7 °C -11.8 °C 34256.2 hPa SW 23.8 km/h 23.8 km/h 23 % 0 mm
16:44 1.6 °C -11.5 °C 34256.2 hPa SW 20.9 km/h 20.9 km/h 24 % 0 mm
16:49 1.4 °C -11.6 °C 34256.2 hPa SW 15 km/h 15 km/h 24 % 0 mm
16:54 1.4 °C -12.1 °C 34256.2 hPa SW 15 km/h 15 km/h 23 % 0 mm
16:59 1.4 °C -12 °C 34256.2 hPa SW 18.3 km/h 18.3 km/h 23 % 0 mm
17:04 1.4 °C -12.1 °C 34256.2 hPa SW 15 km/h 15 km/h 23 % 0 mm
17:09 1.4 °C -12 °C 34256.2 hPa SW 20.9 km/h 20.9 km/h 23 % 0 mm
17:14 1.2 °C -12.6 °C 34256.2 hPa SSW 17.9 km/h 17.9 km/h 22 % 0 mm
17:19 1.3 °C -12.1 °C 34222.3 hPa SW 15 km/h 15 km/h 23 % 0 mm
17:24 1.4 °C -12.3 °C 34222.3 hPa WSW 15 km/h 15 km/h 22 % 0 mm
17:29 1.4 °C -12.4 °C 34222.3 hPa SW 17.9 km/h 17.9 km/h 22 % 0 mm
17:34 1.3 °C -12.5 °C 34222.3 hPa SSW 17.9 km/h 17.9 km/h 22 % 0 mm
17:35 1.3 °C -12.4 °C 34222.3 hPa SW 11.9 km/h 11.9 km/h 22 % 0 mm
17:40 1.4 °C -12.4 °C 34222.3 hPa SW 15 km/h 15 km/h 22 % 0 mm
17:45 1.4 °C -12.4 °C 34222.3 hPa WSW 17.9 km/h 17.9 km/h 22 % 0 mm
17:50 1.1 °C -12.6 °C 34198.6 hPa SSW 20.9 km/h 20.9 km/h 22 % 0 mm
17:55 0.9 °C -13.2 °C 34198.6 hPa West 20.9 km/h 20.9 km/h 21 % 0 mm
18:00 0.9 °C -13.2 °C 34198.6 hPa SW 23.8 km/h 23.8 km/h 21 % 0 mm
18:02 0.9 °C -13.2 °C 34198.6 hPa SW 15 km/h 15 km/h 21 % 0 mm
18:07 0.8 °C -13.2 °C 34198.6 hPa SW 20.9 km/h 20.9 km/h 21 % 0 mm
18:12 0.9 °C -13.6 °C 34198.6 hPa WSW 15 km/h 15 km/h 20 % 0 mm
18:17 0.8 °C -13.7 °C 34198.6 hPa WSW 20.9 km/h 20.9 km/h 20 % 0 mm
18:22 0.7 °C -14.2 °C 34198.6 hPa SSW 35.7 km/h 35.7 km/h 19 % 0 mm
18:27 0.7 °C -14.1 °C 34198.6 hPa SW 17.9 km/h 17.9 km/h 19 % 0 mm
18:32 0.6 °C -14.2 °C 34198.6 hPa SSW 20.9 km/h 20.9 km/h 19 % 0 mm
18:37 0.6 °C -14.7 °C 34198.6 hPa SW 20.9 km/h 20.9 km/h 18 % 0 mm
18:42 0.4 °C -15.2 °C 34198.6 hPa West 23.8 km/h 23.8 km/h 17 % 0 mm
18:47 0.4 °C -14.8 °C 34164.7 hPa SW 23.8 km/h 23.8 km/h 18 % 0 mm
18:52 0.4 °C -14.8 °C 34164.7 hPa WSW 23.8 km/h 23.8 km/h 18 % 0 mm
18:57 0.2 °C -15.4 °C 34164.7 hPa SSW 17.9 km/h 17.9 km/h 17 % 0 mm
19:02 0.2 °C -15.4 °C 34198.6 hPa SW 17.9 km/h 17.9 km/h 17 % 0 mm
19:07 0.2 °C -15.5 °C 34198.6 hPa WSW 17.9 km/h 17.9 km/h 17 % 0 mm
19:12 0 °C -15.6 °C 34198.6 hPa SSW 17.9 km/h 17.9 km/h 17 % 0 mm
19:17 -0.1 °C -15.2 °C 34198.6 hPa SW 17.9 km/h 17.9 km/h 18 % 0 mm
19:22 -0.2 °C -15.3 °C 34198.6 hPa SW 29.8 km/h 29.8 km/h 18 % 0 mm
19:27 -0.4 °C -15.1 °C 34198.6 hPa SSW 20.9 km/h 20.9 km/h 19 % 0 mm
19:32 -0.4 °C -14.6 °C 34198.6 hPa SSW 17.9 km/h 17.9 km/h 20 % 0 mm
19:37 -0.4 °C -14.7 °C 34198.6 hPa SW 11.9 km/h 11.9 km/h 20 % 0 mm
19:42 -0.7 °C -14.5 °C 34198.6 hPa SW 16.6 km/h 16.6 km/h 21 % 0 mm
19:47 -0.8 °C -14.6 °C 34198.6 hPa SW 23.8 km/h 23.8 km/h 21 % 0 mm
19:52 -0.9 °C -14.3 °C 34198.6 hPa SW 17.9 km/h 17.9 km/h 22 % 0 mm
19:57 -0.9 °C -14.3 °C 34198.6 hPa WSW 11.9 km/h 11.9 km/h 22 % 0 mm
20:02 -1.1 °C -14.5 °C 34198.6 hPa SW 20.9 km/h 20.9 km/h 22 % 0 mm
20:07 -1.2 °C -14.2 °C 34198.6 hPa SW 14.5 km/h 14.5 km/h 23 % 0 mm
20:12 -1.3 °C -14.3 °C 34198.6 hPa SSW 17.9 km/h 17.9 km/h 23 % 0 mm
20:17 -1.4 °C -14.1 °C 34222.3 hPa WSW 15 km/h 15 km/h 24 % 0 mm
20:22 -1.6 °C -14.1 °C 34222.3 hPa WSW 11.9 km/h 11.9 km/h 24 % 0 mm
20:27 -1.7 °C -13.9 °C 34222.3 hPa SW 15 km/h 15 km/h 25 % 0 mm
20:32 -1.8 °C -14 °C 34222.3 hPa SW 15.3 km/h 15.3 km/h 25 % 0 mm
20:37 -1.8 °C -13.7 °C 34222.3 hPa WSW 11.9 km/h 11.9 km/h 26 % 0 mm
20:42 -1.9 °C -13.8 °C 34222.3 hPa SSW 16.1 km/h 16.1 km/h 26 % 0 mm
20:47 -2.1 °C -13.6 °C 34222.3 hPa SW 11.9 km/h 11.9 km/h 27 % 0 mm
20:52 -2.2 °C -13.7 °C 34222.3 hPa SW 14 km/h 14 km/h 27 % 0 mm
20:57 -2.3 °C -13.6 °C 34222.3 hPa WSW 15 km/h 15 km/h 28 % 0 mm
21:02 -2.4 °C -13.7 °C 34256.2 hPa SW 11.9 km/h 11.9 km/h 28 % 0 mm
21:07 -2.6 °C -13.7 °C 34256.2 hPa SW 11.9 km/h 11.9 km/h 28 % 0 mm
21:12 -2.7 °C -13.8 °C 34256.2 hPa SW 17.9 km/h 17.9 km/h 28 % 0 mm
21:17 -2.8 °C -13.7 °C 34222.3 hPa SW 19.2 km/h 19.2 km/h 29 % 0 mm
21:22 -2.9 °C -13.7 °C 34222.3 hPa South 11.9 km/h 11.9 km/h 29 % 0 mm
21:27 -3 °C -13.6 °C 34222.3 hPa South 11.9 km/h 11.9 km/h 30 % 0 mm
21:32 -3.1 °C -13.7 °C 34256.2 hPa SW 9 km/h 9 km/h 30 % 0 mm
21:37 -3.2 °C -13.5 °C 34256.2 hPa SSW 8 km/h 8 km/h 31 % 0 mm
21:42 -3.3 °C -13.3 °C 34256.2 hPa SW 15 km/h 15 km/h 32 % 0 mm
21:47 -3.4 °C -13.1 °C 34256.2 hPa SW 6.3 km/h 6.3 km/h 33 % 0 mm
21:52 -3.4 °C -13.2 °C 34256.2 hPa SW 9 km/h 9 km/h 33 % 0 mm
21:57 -3.6 °C -13 °C 34256.2 hPa WSW 9 km/h 9 km/h 34 % 0 mm
22:02 -3.6 °C -12.8 °C 34256.2 hPa SW 4.2 km/h 4.2 km/h 35 % 0 mm
22:07 -3.7 °C -12.7 °C 34256.2 hPa SW 6.3 km/h 6.3 km/h 36 % 0 mm
22:12 -3.7 °C -12.7 °C 34256.2 hPa SW 6 km/h 6 km/h 36 % 0 mm
22:17 -3.8 °C -12.7 °C 34256.2 hPa West 6 km/h 6 km/h 36 % 0 mm
22:22 -3.8 °C -12.6 °C 34256.2 hPa West 3.1 km/h   37 % 0 mm
22:27 -3.8 °C -12.6 °C 34256.2 hPa NW 3.1 km/h   37 % 0 mm
22:32 -3.9 °C -12.4 °C 34256.2 hPa Calm     38 % 0 mm
22:37 -3.9 °C -12.6 °C 34256.2 hPa West 6 km/h 6 km/h 37 % 0 mm
22:42 -3.9 °C -12.4 °C 34256.2 hPa West 6 km/h 6 km/h 38 % 0 mm
22:47 -3.9 °C -12.4 °C 34256.2 hPa West 5.1 km/h 5.1 km/h 38 % 0 mm
22:52 -3.9 °C -12.4 °C 34256.2 hPa WSW 6 km/h 6 km/h 38 % 0 mm
22:57 -4 °C -12.3 °C 34256.2 hPa Calm     39 % 0 mm
23:02 -4.1 °C -12.3 °C 34256.2 hPa West 6 km/h   39 % 0 mm
23:07 -4.2 °C -12.4 °C 34256.2 hPa West 6 km/h 6 km/h 39 % 0 mm
23:12 -4.2 °C -12.4 °C 34256.2 hPa West 3.7 km/h 3.7 km/h 39 % 0 mm
23:17 -4.2 °C -12.2 °C 34256.2 hPa WSW 3.7 km/h 3.7 km/h 40 % 0 mm
23:22 -4.2 °C -12.3 °C 34256.2 hPa West 6 km/h 6 km/h 40 % 0 mm
23:27 -4.2 °C -12.3 °C 34256.2 hPa WSW 6 km/h 6 km/h 40 % 0 mm
23:32 -4.3 °C -12.1 °C 34222.3 hPa WSW 3.7 km/h 3.7 km/h 41 % 0 mm
23:37 -4.3 °C -12.1 °C 34222.3 hPa WSW 9.8 km/h 9.8 km/h 41 % 0 mm
23:42 -4.2 °C -12.1 °C 34222.3 hPa WSW 9 km/h 9 km/h 41 % 0 mm
23:47 -4.3 °C -12.1 °C 34222.3 hPa WSW 9 km/h 9 km/h 41 % 0 mm
23:52 -4.3 °C -11.9 °C 34222.3 hPa SW 6.3 km/h 6.3 km/h 42 % 0 mm
23:57 -4.3 °C -11.9 °C 34222.3 hPa West 6 km/h 6 km/h 42 % 0 mm
Meteo Sesrovires
Elogis d' Weather Underground - 3.5 mb

Guio original per  Jim McMurry - jmcmurry@mwt.net Adaptat per a la plantilla per  Wim van der Kuil - Leuven-Template.eu

Trobareu la nostra informacio del temps tambe a:

Weather Underground

AWEKAS